Terminal Aerodrome Forecast
Issued by NWS

Home | Current Version | Previous Version | Graphics & Text | Print | Product List | Glossary On
Versions: 1 2 3 4 5 6 7 8 9 10 11 12 13 14 15 16 17 18 19 20 21 22
000
FTUS43 KBIS 271730
TAFDIK
TAF
KDIK 271730Z 2718/2818 15011KT P6SM SCT060
     FM271900 15014G19KT P6SM VCTS BKN070CB
      TEMPO 2720/2724 VRB15G25KT 2SM TSRA BKN040CB
     FM280300 16011KT 5SM -SHRA VCTS BKN035 OVC060CB
     FM280600 14006KT 3SM BR OVC009
     FM281400 27006KT P6SM BKN015=

USA.gov is the U.S. government's official web portal to all federal, state and local government web resources and services.